Terminal Aerodrome Forecast
Issued by NWS Lake Charles, LA

Home | Current Version | Previous Version | Text Only | Print | Product List | Glossary On
Versions: 1 2 3 4 5 6 7 8 9 10 11 12 13 14 15
000
FTUS44 KLCH 200100 AAA
TAFBPT
TAF AMD
KBPT 200134Z 2002/2024 13006KT P6SM SCT050 BKN100
     FM200600 06004KT P6SM FEW025
      TEMPO 2009/2013 5SM BR
     FM201500 09012KT P6SM SCT035=

USA.gov is the U.S. government's official web portal to all federal, state and local government web resources and services.